Time;durP1;ratioP1;P1;durP2;ratioP2;P2;SDS_P1;SDS_P2;PMS_P1;PMS_P2;Temp;Humidity;BMP_temperature;BMP_pressure;BME280_temperature;BME280_humidity;BME280_pressure;Samples;Min_cycle;Max_cycle;Signal;HPM_P1;HPM_P2
2023/07/05 00:00:34;;;;;;;9.63;4.07;;;14.20;99.90;;;;;;5056681;28;20049;-77
2023/07/05 00:03:02;;;;;;;10.43;4.65;;;14.10;99.90;;;;;;5075410;28;20159;-77
2023/07/05 00:05:28;;;;;;;7.20;4.18;;;14.10;99.90;;;;;;5057773;28;20101;-77
2023/07/05 00:07:54;;;;;;;10.63;4.30;;;14.10;99.90;;;;;;5074171;28;20041;-77
2023/07/05 00:10:20;;;;;;;8.07;4.30;;;14.10;99.90;;;;;;5057051;28;20412;-77
2023/07/05 00:12:46;;;;;;;10.43;4.60;;;14.10;99.90;;;;;;5074852;28;20037;-77
2023/07/05 00:15:12;;;;;;;8.15;4.90;;;14.00;99.90;;;;;;5074227;28;20438;-77
2023/07/05 00:17:38;;;;;;;14.57;5.80;;;14.00;99.90;;;;;;5057067;28;20043;-78
2023/07/05 00:20:06;;;;;;;12.23;5.75;;;14.00;99.90;;;;;;5056792;28;20052;-77
2023/07/05 00:22:32;;;;;;;9.38;6.05;;;14.00;99.90;;;;;;5054933;28;20424;-76
2023/07/05 00:25:00;;;;;;;10.73;6.32;;;13.90;99.90;;;;;;5057176;28;20523;-77
2023/07/05 00:27:26;;;;;;;13.13;5.18;;;13.90;99.90;;;;;;5074929;28;20076;-76
2023/07/05 00:29:54;;;;;;;12.05;5.78;;;13.90;99.90;;;;;;5073368;28;20079;-76
2023/07/05 00:32:23;;;;;;;10.02;5.57;;;13.90;99.90;;;;;;5074833;28;20419;-77
2023/07/05 00:34:49;;;;;;;10.43;6.32;;;13.90;99.90;;;;;;5074327;28;20052;-76
2023/07/05 00:37:18;;;;;;;13.82;6.70;;;14.00;99.90;;;;;;5073833;28;20090;-76
2023/07/05 00:39:44;;;;;;;8.90;6.28;;;14.00;99.90;;;;;;5056336;28;20508;-77
2023/07/05 00:42:09;;;;;;;11.07;6.30;;;14.00;99.90;;;;;;5074253;28;20059;-77
2023/07/05 00:44:35;;;;;;;10.13;6.35;;;14.00;99.90;;;;;;5073686;28;20044;-77
2023/07/05 00:47:26;;;;;;;12.75;6.32;;;14.00;99.90;;;;;;5056596;28;20397;-77
2023/07/05 00:49:53;;;;;;;12.48;5.43;;;14.00;99.90;;;;;;5072896;28;20127;-77
2023/07/05 00:52:19;;;;;;;10.20;5.95;;;14.00;99.90;;;;;;5074531;28;20067;-77
2023/07/05 00:54:52;;;;;;;10.85;5.65;;;14.00;99.90;;;;;;5056408;28;20036;-77
2023/07/05 00:57:22;;;;;;;10.95;5.82;;;14.00;99.90;;;;;;5073449;28;20056;-76
2023/07/05 00:59:52;;;;;;;12.15;5.72;;;14.10;99.90;;;;;;5056102;28;20435;-77
2023/07/05 01:02:18;;;;;;;8.55;5.35;;;14.00;99.90;;;;;;5073952;28;20045;-76
2023/07/05 01:04:44;;;;;;;10.70;5.60;;;14.00;99.90;;;;;;5073467;28;20090;-77
2023/07/05 01:07:19;;;;;;;13.23;5.93;;;14.10;99.90;;;;;;5055927;28;20079;-77
2023/07/05 01:09:50;;;;;;;10.77;5.70;;;14.10;99.90;;;;;;5056294;28;20387;-77
2023/07/05 01:12:22;;;;;;;13.75;6.03;;;14.00;99.90;;;;;;5054364;28;20044;-77
2023/07/05 01:15:02;;;;;;;14.48;5.93;;;14.10;99.90;;;;;;5054887;28;20037;-76
2023/07/05 01:17:33;;;;;;;11.02;5.63;;;14.10;99.90;;;;;;5052385;28;20052;-76
2023/07/05 01:20:07;;;;;;;10.43;5.47;;;14.10;99.90;;;;;;5054597;28;20037;-76
2023/07/05 01:22:36;;;;;;;9.18;5.50;;;14.00;99.90;;;;;;5055646;28;20044;-77
2023/07/05 01:25:23;;;;;;;14.45;5.80;;;14.00;99.90;;;;;;5055405;28;20048;-77
2023/07/05 01:28:20;;;;;;;11.82;6.15;;;14.00;99.90;;;;;;5055563;28;20052;-77
2023/07/05 01:31:15;;;;;;;14.63;5.93;;;14.00;99.90;;;;;;5073188;28;20106;-77
2023/07/05 01:33:41;;;;;;;9.13;5.40;;;14.00;99.90;;;;;;5054283;28;20802;-76
2023/07/05 01:36:09;;;;;;;9.52;5.15;;;14.00;99.90;;;;;;5055416;28;20059;-77
2023/07/05 01:38:34;;;;;;;10.10;5.63;;;14.00;99.90;;;;;;5055402;28;20048;-77
2023/07/05 01:41:05;;;;;;;14.18;5.93;;;14.00;99.90;;;;;;5054839;28;20502;-77
2023/07/05 01:43:38;;;;;;;10.93;6.18;;;14.00;99.90;;;;;;5055803;28;20401;-77
2023/07/05 01:46:29;;;;;;;12.10;6.53;;;14.00;99.90;;;;;;5072721;28;20040;-77
2023/07/05 01:49:22;;;;;;;11.23;5.90;;;14.00;99.90;;;;;;5055743;28;20045;-77
2023/07/05 01:52:04;;;;;;;9.73;6.22;;;14.00;99.90;;;;;;5054957;28;20492;-78
2023/07/05 01:54:42;;;;;;;11.27;6.38;;;14.00;99.90;;;;;;5072540;28;20044;-79
2023/07/05 01:57:23;;;;;;;15.10;6.50;;;14.00;99.90;;;;;;5055702;28;20071;-78
2023/07/05 02:00:15;;;;;;;12.93;6.60;;;14.00;99.90;;;;;;5055035;28;20056;-78
2023/07/05 02:02:57;;;;;;;10.93;6.35;;;14.00;99.90;;;;;;5055199;28;20107;-78
2023/07/05 02:05:27;;;;;;;10.18;6.75;;;14.00;99.90;;;;;;5073174;28;20067;-78
2023/07/05 02:07:53;;;;;;;10.65;6.43;;;14.00;99.90;;;;;;5054156;28;20041;-79
2023/07/05 02:10:26;;;;;;;12.90;6.57;;;13.90;99.90;;;;;;5054969;28;20060;-78
2023/07/05 02:12:53;;;;;;;11.68;5.97;;;13.90;99.90;;;;;;5054795;28;20101;-78
2023/07/05 02:15:20;;;;;;;13.88;7.20;;;13.90;99.90;;;;;;5054406;28;20055;-78
2023/07/05 02:17:46;;;;;;;11.88;6.82;;;13.90;99.90;;;;;;5072962;28;20040;-78
2023/07/05 02:20:12;;;;;;;11.35;6.60;;;13.90;99.90;;;;;;5072460;28;20044;-78
2023/07/05 02:22:38;;;;;;;14.45;7.18;;;13.90;99.90;;;;;;5071694;28;20040;-78
2023/07/05 02:25:04;;;;;;;10.15;6.97;;;13.90;99.90;;;;;;5054174;28;20057;-77
2023/07/05 02:27:35;;;;;;;9.60;6.60;;;13.90;99.90;;;;;;5055121;28;20080;-78
2023/07/05 02:30:01;;;;;;;12.05;7.95;;;13.90;99.90;;;;;;5054016;28;20048;-78
2023/07/05 02:32:27;;;;;;;11.60;7.07;;;13.90;99.90;;;;;;5054895;28;20044;-78
2023/07/05 02:34:59;;;;;;;13.15;6.88;;;13.90;99.90;;;;;;5072331;28;20140;-78
2023/07/05 02:37:24;;;;;;;15.25;7.38;;;13.90;99.90;;;;;;5034475;28;20045;-78
2023/07/05 02:39:53;;;;;;;14.20;7.85;;;13.90;99.90;;;;;;5043888;28;20441;-78
2023/07/05 02:42:21;;;;;;;11.35;7.15;;;13.90;99.90;;;;;;5072057;28;20048;-77
2023/07/05 02:44:51;;;;;;;11.60;7.70;;;13.90;99.90;;;;;;5075548;28;20098;-77
2023/07/05 02:47:21;;;;;;;16.27;6.90;;;13.90;99.90;;;;;;5078814;28;20502;-78
2023/07/05 02:49:46;;;;;;;16.52;7.05;;;13.90;99.90;;;;;;5078308;28;20044;-78
2023/07/05 02:52:13;;;;;;;14.32;8.02;;;13.90;99.90;;;;;;5061343;28;20045;-79
2023/07/05 02:54:39;;;;;;;11.80;7.65;;;13.90;99.90;;;;;;5060911;28;20127;-78
2023/07/05 02:57:05;;;;;;;15.40;7.85;;;13.90;99.90;;;;;;5078658;28;20105;-78
2023/07/05 02:59:35;;;;;;;14.73;8.60;;;13.90;99.90;;;;;;5078842;28;20056;-78
2023/07/05 03:02:01;;;;;;;15.32;8.45;;;13.90;99.90;;;;;;5079478;28;20127;-78
2023/07/05 03:04:29;;;;;;;13.57;7.68;;;13.90;99.90;;;;;;5060458;28;20048;-78
2023/07/05 03:06:55;;;;;;;13.93;7.68;;;13.90;99.90;;;;;;5078798;28;20395;-80
2023/07/05 04:54:54;;;;;;;6.28;3.15;;;14.90;99.90;;;;;;982700;26;20329;-87
2023/07/05 05:00:56;;;;;;;6.30;3.35;;;14.80;99.90;;;;;;5275648;22;20057;-78
2023/07/05 05:04:13;;;;;;;4.55;2.50;;;14.00;99.90;;;;;;5015587;28;20088;-88
2023/07/05 05:06:52;;;;;;;7.07;3.80;;;14.40;99.90;;;;;;5016392;28;20100;-78
2023/07/05 05:13:14;;;;;;;5.72;2.97;;;14.10;99.90;;;;;;5016797;28;20136;-89
2023/07/05 05:19:40;;;;;;;5.65;2.95;;;15.00;99.90;;;;;;4899050;29;20212;-74
2023/07/05 05:22:14;;;;;;;6.35;2.40;;;15.00;99.90;;;;;;4922532;29;20496;-77
2023/07/05 05:24:52;;;;;;;5.97;3.00;;;15.00;99.90;;;;;;5013215;28;20571;-76
2023/07/05 05:27:21;;;;;;;5.68;2.95;;;15.00;99.90;;;;;;5011609;28;20049;-77
2023/07/05 05:29:47;;;;;;;4.78;2.65;;;15.00;99.90;;;;;;5014218;28;20069;-76
2023/07/05 05:32:51;;;;;;;5.90;2.95;;;15.00;99.90;;;;;;5014106;28;20037;-77
2023/07/05 05:35:20;;;;;;;4.97;2.78;;;15.80;99.90;;;;;;5012051;28;20172;-75
2023/07/05 05:37:55;;;;;;;6.43;3.00;;;15.00;99.90;;;;;;5011630;28;20041;-77
2023/07/05 05:40:20;;;;;;;5.50;2.72;;;15.10;99.90;;;;;;5012593;28;20361;-76
2023/07/05 05:42:46;;;;;;;7.63;3.05;;;15.00;99.90;;;;;;5012827;28;20124;-76
2023/07/05 05:45:12;;;;;;;7.10;3.38;;;14.90;99.90;;;;;;5012459;28;20132;-77
2023/07/05 05:47:38;;;;;;;6.53;3.45;;;14.90;99.90;;;;;;5013435;28;20041;-76
2023/07/05 05:50:04;;;;;;;8.50;3.63;;;14.80;99.90;;;;;;5013829;28;20111;-76
2023/07/05 05:52:30;;;;;;;7.57;4.00;;;14.50;99.90;;;;;;5013360;28;20112;-76
2023/07/05 05:54:56;;;;;;;6.90;4.10;;;14.50;99.90;;;;;;5032158;28;20087;-76
2023/07/05 05:57:22;;;;;;;6.18;3.85;;;14.40;99.90;;;;;;5032957;28;20120;-75
2023/07/05 05:59:47;;;;;;;6.40;4.32;;;14.50;99.90;;;;;;5016613;28;20042;-75
2023/07/05 06:02:13;;;;;;;7.22;4.43;;;14.30;99.90;;;;;;5052686;22;20519;-76
2023/07/05 06:04:39;;;;;;;7.88;4.63;;;14.20;99.90;;;;;;5091688;28;20093;-76
2023/07/05 06:07:04;;;;;;;6.57;3.95;;;14.20;99.90;;;;;;5090715;28;20036;-76
2023/07/05 06:09:37;;;;;;;9.98;4.72;;;14.30;99.90;;;;;;5089995;28;20047;-75
2023/07/05 06:12:03;;;;;;;7.88;4.28;;;14.30;99.90;;;;;;5091582;28;20082;-80
2023/07/05 06:14:29;;;;;;;8.55;4.15;;;14.40;99.90;;;;;;5071141;28;20098;-83
2023/07/05 06:16:55;;;;;;;6.50;4.05;;;14.50;99.90;;;;;;5082288;28;20041;-81
2023/07/05 06:19:21;;;;;;;7.68;3.80;;;14.60;99.90;;;;;;5058255;28;20102;-82
2023/07/05 06:21:46;;;;;;;9.60;3.75;;;14.70;99.90;;;;;;5072653;28;20095;-79
2023/07/05 06:24:12;;;;;;;6.90;3.08;;;14.70;99.90;;;;;;5071640;28;20040;-80
2023/07/05 06:26:38;;;;;;;5.97;3.15;;;14.80;99.90;;;;;;5072957;28;20491;-87
2023/07/05 06:29:09;;;;;;;8.02;3.38;;;14.80;99.90;;;;;;5070785;28;20041;-80
2023/07/05 06:31:35;;;;;;;5.53;3.45;;;14.90;99.90;;;;;;5072488;28;20043;-76
2023/07/05 06:34:04;;;;;;;6.93;2.55;;;14.90;99.90;;;;;;5071222;28;20056;-75
2023/07/05 06:36:30;;;;;;;3.90;2.50;;;15.00;99.90;;;;;;5071007;28;20056;-77
2023/07/05 06:38:59;;;;;;;6.95;2.78;;;15.00;99.90;;;;;;5078129;28;20048;-76
2023/07/05 06:41:31;;;;;;;6.30;3.20;;;15.10;99.90;;;;;;5054148;28;20063;-76
2023/07/05 06:43:59;;;;;;;5.75;2.42;;;15.20;99.90;;;;;;5072308;28;20045;-77
2023/07/05 06:46:25;;;;;;;4.47;2.80;;;16.20;99.90;;;;;;5072433;28;20049;-77
2023/07/05 06:48:51;;;;;;;4.88;2.60;;;15.50;99.90;;;;;;5071626;28;20459;-76
2023/07/05 06:51:21;;;;;;;5.38;2.90;;;15.60;99.90;;;;;;5072579;28;20037;-76
2023/07/05 06:53:47;;;;;;;5.10;2.47;;;15.60;99.90;;;;;;5071777;28;20036;-77
2023/07/05 06:56:13;;;;;;;5.95;2.33;;;15.60;99.90;;;;;;5071744;28;20396;-77
2023/07/05 06:58:38;;;;;;;3.88;2.00;;;15.70;99.90;;;;;;5092106;28;20040;-77
2023/07/05 07:01:04;;;;;;;6.18;2.35;;;15.70;99.90;;;;;;5074310;28;20048;-77
2023/07/05 07:03:33;;;;;;;4.53;2.28;;;15.60;99.90;;;;;;5063170;28;20085;-76
2023/07/05 07:05:59;;;;;;;5.20;2.15;;;15.60;99.90;;;;;;5058584;28;20048;-77
2023/07/05 07:47:39;;;;;;;2.30;0.80;;;11.10;99.90;;;;;;5056836;28;20045;-76
2023/07/05 07:50:12;;;;;;;;;;;11.50;99.90;;;;;;5075555;28;20046;-75
2023/07/05 07:52:41;;;;;;;2.78;1.10;;;11.30;99.90;;;;;;5056234;28;20011;-75
2023/07/05 07:55:09;;;;;;;3.00;0.90;;;11.20;99.90;;;;;;5057495;28;20036;-75
2023/07/05 07:57:35;;;;;;;3.58;0.85;;;11.10;99.90;;;;;;5054234;28;20055;-75
2023/07/05 08:00:00;;;;;;;;;;;11.10;99.90;;;;;;5056959;28;20052;-75
2023/07/05 08:02:26;;;;;;;2.03;0.80;;;11.10;99.90;;;;;;5048831;28;19921;-76
2023/07/05 08:04:52;;;;;;;;;;;11.10;99.90;;;;;;5050174;28;20086;-75
2023/07/05 08:07:17;;;;;;;2.03;0.90;;;11.10;99.90;;;;;;5074449;28;19924;-76
2023/07/05 08:12:18;;;;;;;5.40;1.08;;;11.10;99.90;;;;;;5215523;23;19943;-78
2023/07/05 08:14:44;;;;;;;;;;;11.10;99.90;;;;;;5073516;28;20492;-74
2023/07/05 08:22:20;;;;;;;3.55;0.93;;;11.40;99.90;;;;;;6092666;22;20318;-80
2023/07/05 08:39:33;;;;;;;7.47;1.40;;;11.30;99.90;;;;;;5034336;28;20080;-83
2023/07/05 08:42:08;;;;;;;5.30;1.90;;;11.50;99.90;;;;;;5015561;28;20067;-71
2023/07/05 08:44:55;;;;;;;7.80;2.20;;;11.60;99.90;;;;;;5005749;28;20045;-74
2023/07/05 08:47:21;;;;;;;10.18;1.83;;;11.70;99.90;;;;;;5031682;28;20094;-74
2023/07/05 08:49:54;;;;;;;;;;;11.80;99.90;;;;;;5019097;28;20057;-74
2023/07/05 08:52:31;;;;;;;9.18;2.05;;;11.90;99.90;;;;;;5019461;28;20289;-74
2023/07/05 08:55:02;;;;;;;9.60;2.70;;;12.10;99.90;;;;;;5042940;28;20037;-72
2023/07/05 09:12:30;;;;;;;8.10;2.17;;;14.50;99.90;;;;;;5043221;28;20189;-73
2023/07/05 09:23:53;;;;;;;3.47;0.98;;;14.90;99.90;;;;;;5050910;28;20039;-73
2023/07/05 09:27:34;;;;;;;3.58;1.10;;;14.30;99.90;;;;;;4963410;28;20145;-73
2023/07/05 09:33:46;;;;;;;3.42;1.05;;;13.80;99.90;;;;;;5019684;28;20558;-74
2023/07/05 09:53:12;;;;;;;2.55;0.70;;;15.00;99.90;;;;;;5379919;22;20500;-72
2023/07/05 09:59:21;;;;;;;2.92;0.70;;;14.00;99.90;;;;;;5083970;28;20126;-73
2023/07/05 10:02:02;;;;;;;2.75;0.65;;;14.50;99.90;;;;;;5066859;28;20066;-75
2023/07/05 10:04:28;;;;;;;3.00;0.60;;;15.10;99.90;;;;;;5063864;28;20036;-74
2023/07/05 10:07:02;;;;;;;2.75;0.70;;;15.80;99.90;;;;;;5070610;28;20046;-73
2023/07/05 10:09:29;;;;;;;5.53;0.95;;;16.40;99.90;;;;;;5072926;28;20047;-74
2023/07/05 10:12:09;;;;;;;2.60;0.75;;;16.90;99.90;;;;;;5072484;28;20375;-73
2023/07/05 10:14:35;;;;;;;3.47;0.93;;;17.40;99.90;;;;;;5081491;28;20072;-73
2023/07/05 10:17:07;;;;;;;2.70;0.90;;;17.70;99.90;;;;;;5074592;28;20482;-74
2023/07/05 10:19:39;;;;;;;2.30;0.47;;;18.00;99.90;;;;;;5071132;28;20088;-74
2023/07/05 10:22:06;;;;;;;3.92;0.73;;;17.80;99.90;;;;;;5072470;28;20045;-74
2023/07/05 10:24:43;;;;;;;2.67;0.70;;;18.10;99.90;;;;;;5055216;28;20032;-74
2023/07/05 10:27:33;;;;;;;3.00;0.90;;;18.70;99.90;;;;;;5079145;28;20041;-74
2023/07/05 10:30:02;;;;;;;2.33;0.70;;;19.30;99.90;;;;;;5058934;28;20037;-73
2023/07/05 10:32:30;;;;;;;2.63;0.80;;;19.80;99.90;;;;;;5071927;28;20098;-74
2023/07/05 10:34:57;;;;;;;1.42;0.70;;;20.10;99.90;;;;;;5065459;28;20036;-73
2023/07/05 10:37:36;;;;;;;3.00;1.00;;;20.40;99.90;;;;;;5083243;28;20063;-73
2023/07/05 10:40:05;;;;;;;5.30;0.85;;;20.40;99.90;;;;;;5073336;28;20044;-73
2023/07/05 10:42:32;;;;;;;2.70;0.68;;;20.50;99.90;;;;;;5062555;28;20055;-74
2023/07/05 10:45:00;;;;;;;3.50;0.75;;;20.30;99.90;;;;;;5072047;28;20061;-74
2023/07/05 10:47:27;;;;;;;6.22;1.10;;;20.20;99.90;;;;;;5062328;28;20044;-73
2023/07/05 10:49:59;;;;;;;3.67;1.05;;;20.20;99.90;;;;;;5078500;28;20052;-74
2023/07/05 10:52:27;;;;;;;4.53;1.10;;;20.30;99.90;;;;;;5073420;28;20059;-74
2023/07/05 10:55:15;;;;;;;5.13;1.10;;;20.60;99.90;;;;;;5090713;28;20058;-74
2023/07/05 10:57:45;;;;;;;5.63;1.27;;;20.70;99.90;;;;;;5069259;28;20559;-74
2023/07/05 11:00:29;;;;;;;6.53;1.48;;;20.50;99.90;;;;;;5069376;28;20064;-74
2023/07/05 11:03:13;;;;;;;4.45;1.15;;;20.10;99.90;;;;;;5065321;28;20041;-74
2023/07/05 11:05:51;;;;;;;5.05;1.13;;;19.80;99.90;;;;;;5063507;28;20052;-74
2023/07/05 11:08:29;;;;;;;7.40;1.35;;;19.90;99.90;;;;;;5063917;28;20087;-74
2023/07/05 11:11:00;;;;;;;5.10;1.10;;;19.80;99.90;;;;;;5066961;28;20130;-75
2023/07/05 11:13:28;;;;;;;5.22;1.20;;;19.80;99.90;;;;;;5052734;28;20504;-74
2023/07/05 11:15:55;;;;;;;8.95;1.90;;;19.80;99.90;;;;;;5067260;28;20072;-74
2023/07/05 11:18:23;;;;;;;7.57;1.45;;;19.80;99.90;;;;;;5071260;28;20048;-75
2023/07/05 11:20:56;;;;;;;10.95;1.98;;;19.90;99.90;;;;;;5071167;28;20500;-77
2023/07/05 11:27:27;;;;;;;9.38;2.15;;;18.70;99.90;;;;;;5610350;22;20071;-72
2023/07/05 11:29:58;;;;;;;13.13;2.60;;;18.30;99.90;;;;;;5072577;28;20127;-73
2023/07/05 11:33:00;;;;;;;8.98;2.60;;;17.60;99.90;;;;;;5051647;28;20129;-75
2023/07/05 11:42:13;;;;;;;15.75;3.50;;;16.20;99.90;;;;;;5075562;28;20485;-76
2023/07/05 11:45:25;;;;;;;13.10;2.70;;;15.80;99.90;;;;;;5077799;28;20044;-77
2023/07/05 11:51:38;;;;;;;13.38;2.90;;;14.30;99.90;;;;;;5085315;28;20035;-75
2023/07/05 11:54:47;;;;;;;12.13;2.75;;;15.10;99.90;;;;;;5095287;28;20076;-74
2023/07/05 11:57:57;;;;;;;9.38;2.20;;;14.80;99.90;;;;;;5072712;28;20048;-75
2023/07/05 12:00:47;;;;;;;12.88;2.10;;;14.90;99.90;;;;;;5084965;28;20052;-72
2023/07/05 12:04:26;;;;;;;9.38;2.95;;;14.80;99.90;;;;;;5061769;28;20052;-72
2023/07/05 12:07:04;;;;;;;18.63;3.35;;;14.80;99.90;;;;;;5092762;28;20059;-72
2023/07/05 12:09:44;;;;;;;6.85;2.08;;;14.80;99.90;;;;;;5090298;28;20399;-74
2023/07/05 12:26:32;;;;;;;12.95;2.83;;;14.00;99.90;;;;;;4933030;29;20051;-74
2023/07/05 12:29:13;;;;;;;11.10;2.70;;;12.70;99.90;;;;;;4984933;28;20479;-74
2023/07/05 12:31:43;;;;;;;13.32;2.92;;;13.80;99.90;;;;;;5062721;28;20044;-73
2023/07/05 12:34:19;;;;;;;13.38;3.47;;;13.70;99.90;;;;;;5074546;28;20542;-74
2023/07/05 12:36:44;;;;;;;13.90;3.70;;;13.70;99.90;;;;;;5077680;28;20056;-73
2023/07/05 12:39:17;;;;;;;18.67;4.10;;;13.70;99.90;;;;;;5074788;28;20070;-73
2023/07/05 12:41:43;;;;;;;11.60;3.20;;;13.60;99.90;;;;;;5110773;28;20054;-73
2023/07/05 12:44:16;;;;;;;20.27;3.78;;;13.50;99.90;;;;;;5114037;28;20093;-73
2023/07/05 12:46:42;;;;;;;18.25;4.63;;;13.40;99.90;;;;;;5095745;28;20051;-73
2023/07/05 12:49:28;;;;;;;15.50;3.38;;;13.40;99.90;;;;;;5112052;28;20086;-73
2023/07/05 12:51:58;;;;;;;18.13;3.17;;;13.40;99.90;;;;;;5075844;28;20488;-74
2023/07/05 12:54:28;;;;;;;18.48;3.58;;;13.30;99.90;;;;;;5086034;28;20092;-74
2023/07/05 12:56:59;;;;;;;18.05;3.47;;;13.40;99.90;;;;;;5114094;28;20454;-72
2023/07/05 12:59:34;;;;;;;18.05;3.72;;;13.40;99.90;;;;;;5109287;28;20040;-71
2023/07/05 13:02:05;;;;;;;15.57;3.30;;;13.40;99.90;;;;;;5101653;28;20071;-72
2023/07/05 13:04:35;;;;;;;13.68;2.80;;;13.40;99.90;;;;;;5110220;28;20032;-72
2023/07/05 13:07:04;;;;;;;26.42;4.32;;;13.50;99.90;;;;;;5075948;28;20048;-73
2023/07/05 13:09:36;;;;;;;15.57;4.05;;;13.60;99.90;;;;;;5092800;28;20036;-74
2023/07/05 13:12:07;;;;;;;18.75;3.13;;;13.60;99.90;;;;;;5093395;28;20071;-74
2023/07/05 13:14:38;;;;;;;14.85;3.40;;;13.60;99.90;;;;;;5095175;28;20040;-72
2023/07/05 13:17:25;;;;;;;17.50;3.00;;;13.60;99.90;;;;;;5099507;28;20056;-71
2023/07/05 13:20:15;;;;;;;18.65;3.63;;;13.70;99.90;;;;;;5103189;28;20044;-73
2023/07/05 13:22:44;;;;;;;13.63;2.67;;;13.70;99.90;;;;;;5094486;28;20083;-76
2023/07/05 13:25:28;;;;;;;17.10;3.90;;;13.80;99.90;;;;;;5106093;28;20089;-75
2023/07/05 13:27:56;;;;;;;14.85;2.78;;;13.90;99.90;;;;;;5075158;28;20130;-73
2023/07/05 13:30:23;;;;;;;15.10;2.70;;;13.90;99.90;;;;;;5092909;28;20085;-72
2023/07/05 13:32:55;;;;;;;16.05;3.00;;;14.00;99.90;;;;;;5079512;28;20113;-72
2023/07/05 13:35:24;;;;;;;18.42;4.05;;;14.00;99.90;;;;;;5102743;28;20044;-72
2023/07/05 13:37:51;;;;;;;14.70;3.03;;;14.00;99.90;;;;;;5104361;28;20043;-73
2023/07/05 13:40:22;;;;;;;10.73;2.58;;;14.10;99.90;;;;;;5100769;28;20059;-72
2023/07/05 13:42:49;;;;;;;12.15;2.80;;;14.20;99.90;;;;;;5078978;28;20510;-73
2023/07/05 13:45:23;;;;;;;19.23;3.33;;;14.20;99.90;;;;;;5083576;28;20127;-73
2023/07/05 13:47:50;;;;;;;14.95;2.97;;;14.20;99.90;;;;;;5102319;28;20032;-71
2023/07/05 13:50:16;;;;;;;11.32;2.80;;;14.20;99.90;;;;;;5103440;28;20044;-71
2023/07/05 13:52:44;;;;;;;11.25;2.92;;;14.20;99.90;;;;;;5106954;28;20080;-73
2023/07/05 13:55:22;;;;;;;12.05;2.75;;;14.20;99.90;;;;;;5077540;28;20136;-72
2023/07/05 13:57:56;;;;;;;9.82;2.42;;;14.20;99.90;;;;;;5102073;28;20258;-72
2023/07/05 14:00:24;;;;;;;10.32;2.50;;;14.30;99.90;;;;;;5107054;28;20079;-72
2023/07/05 14:02:50;;;;;;;11.35;2.47;;;14.40;99.90;;;;;;5096407;28;20040;-74
2023/07/05 14:05:17;;;;;;;9.32;2.63;;;14.60;99.90;;;;;;5106892;28;20448;-75
2023/07/05 14:07:44;;;;;;;11.32;2.75;;;14.80;99.90;;;;;;5102728;28;20043;-74
2023/07/05 14:10:14;;;;;;;10.13;2.10;;;14.90;99.90;;;;;;5082002;28;20047;-72
2023/07/05 14:12:40;;;;;;;9.25;2.25;;;14.90;99.90;;;;;;5092109;28;20047;-74
2023/07/05 14:15:27;;;;;;;7.90;2.38;;;15.00;99.90;;;;;;5103454;28;20028;-74
2023/07/05 14:17:53;;;;;;;4.43;2.15;;;15.20;99.90;;;;;;5078752;28;20391;-73
2023/07/05 14:20:20;;;;;;;6.82;2.10;;;15.30;99.90;;;;;;5099771;28;20047;-75
2023/07/05 14:22:46;;;;;;;13.00;2.55;;;15.30;99.90;;;;;;5082347;28;20040;-72
2023/07/05 14:25:19;;;;;;;6.35;1.90;;;15.40;99.90;;;;;;5108029;28;20048;-74
2023/07/05 14:27:45;;;;;;;8.43;1.90;;;15.40;99.90;;;;;;5100858;28;20058;-73
2023/07/05 14:30:11;;;;;;;6.25;1.98;;;15.30;99.90;;;;;;5104442;28;20044;-74
2023/07/05 14:32:39;;;;;;;9.30;1.98;;;15.30;99.90;;;;;;5104023;28;20031;-74
2023/07/05 14:35:22;;;;;;;9.35;2.33;;;15.20;99.90;;;;;;5084988;28;20047;-74
2023/07/05 14:37:50;;;;;;;6.85;1.98;;;15.20;99.90;;;;;;5099464;28;20032;-74
2023/07/05 14:40:27;;;;;;;4.05;1.60;;;15.30;99.90;;;;;;5077468;28;20130;-75
2023/07/05 14:42:53;;;;;;;7.60;1.80;;;15.30;99.90;;;;;;5077859;28;20522;-74
2023/07/05 14:45:26;;;;;;;6.90;2.10;;;15.20;99.90;;;;;;5096740;28;20031;-74
2023/07/05 14:47:57;;;;;;;7.60;2.28;;;15.30;99.90;;;;;;5102813;28;20357;-74
2023/07/05 14:50:28;;;;;;;7.78;2.42;;;15.40;99.90;;;;;;5081880;28;20036;-74
2023/07/05 14:52:57;;;;;;;7.35;1.98;;;15.40;99.90;;;;;;5096400;28;20126;-73
2023/07/05 14:55:24;;;;;;;4.07;1.85;;;15.40;99.90;;;;;;5074248;28;20032;-75
2023/07/05 14:57:53;;;;;;;12.77;2.05;;;15.40;99.90;;;;;;5103035;28;20040;-75
2023/07/05 15:00:22;;;;;;;7.47;2.10;;;15.40;99.90;;;;;;5098826;28;20080;-74
2023/07/05 15:03:09;;;;;;;4.15;1.80;;;15.60;99.90;;;;;;5107336;28;20050;-75
2023/07/05 15:05:35;;;;;;;6.68;2.03;;;15.70;99.90;;;;;;5092559;28;20048;-73
2023/07/05 15:08:07;;;;;;;6.38;2.00;;;15.90;99.90;;;;;;5101377;28;20036;-75
2023/07/05 15:10:33;;;;;;;5.70;2.05;;;16.00;99.90;;;;;;5106569;28;20484;-75
2023/07/05 15:12:59;;;;;;;7.97;2.25;;;16.20;99.90;;;;;;5076177;28;20158;-75
2023/07/05 15:15:28;;;;;;;8.70;2.30;;;16.20;99.90;;;;;;5077826;28;20149;-75
2023/07/05 15:17:55;;;;;;;7.07;1.90;;;16.30;99.90;;;;;;5079440;28;20495;-75
2023/07/05 15:20:26;;;;;;;7.00;2.00;;;16.40;99.90;;;;;;5103881;28;20044;-75
2023/07/05 15:23:00;;;;;;;6.13;2.28;;;16.60;99.90;;;;;;5097539;28;20401;-75
2023/07/05 15:25:26;;;;;;;9.10;2.50;;;16.60;99.90;;;;;;5083311;28;20472;-73
2023/07/05 15:27:52;;;;;;;8.02;2.72;;;16.50;99.90;;;;;;5105756;28;20104;-75
2023/07/05 15:30:19;;;;;;;7.05;3.05;;;16.50;99.90;;;;;;5076075;28;20070;-73
2023/07/05 15:32:45;;;;;;;7.57;2.08;;;16.60;99.90;;;;;;5083343;28;20113;-73
2023/07/05 15:35:14;;;;;;;8.13;2.00;;;16.50;99.90;;;;;;5091921;28;20068;-73
2023/07/05 15:37:40;;;;;;;9.55;2.50;;;16.30;99.90;;;;;;5077976;28;20043;-73
2023/07/05 15:40:09;;;;;;;8.52;2.28;;;16.30;99.90;;;;;;5099234;28;20048;-74
2023/07/05 15:42:35;;;;;;;6.93;2.25;;;16.10;99.90;;;;;;5088244;28;20146;-74
2023/07/05 15:45:02;;;;;;;9.02;1.98;;;16.30;99.90;;;;;;5103196;28;20493;-74
2023/07/05 15:47:28;;;;;;;7.85;2.25;;;16.40;99.90;;;;;;5092711;28;20123;-74
2023/07/05 15:49:54;;;;;;;6.40;1.80;;;16.40;99.90;;;;;;5090081;28;20142;-74
2023/07/05 15:52:23;;;;;;;4.90;1.90;;;16.50;99.90;;;;;;5091766;28;20040;-73
2023/07/05 15:54:49;;;;;;;5.72;1.90;;;16.60;99.90;;;;;;5095484;28;20509;-73
2023/07/05 15:57:15;;;;;;;6.28;1.80;;;16.80;99.90;;;;;;5080029;28;20044;-73
2023/07/05 15:59:46;;;;;;;7.22;2.05;;;16.90;99.90;;;;;;5077115;28;20040;-74
2023/07/05 16:02:17;;;;;;;4.13;1.90;;;16.80;99.90;;;;;;5095079;28;20118;-73
2023/07/05 16:04:46;;;;;;;5.70;1.73;;;16.90;99.90;;;;;;5094486;28;20079;-73
2023/07/05 16:07:14;;;;;;;5.93;2.10;;;16.90;99.90;;;;;;5095441;28;20071;-74
2023/07/05 16:09:40;;;;;;;5.25;1.90;;;16.90;99.90;;;;;;5107092;28;20079;-74
2023/07/05 16:12:07;;;;;;;8.02;2.20;;;17.00;99.90;;;;;;5099566;28;20055;-74
2023/07/05 16:14:33;;;;;;;6.65;2.15;;;16.80;99.90;;;;;;5095286;28;20055;-73
2023/07/05 16:16:59;;;;;;;7.57;2.28;;;16.60;99.90;;;;;;5077081;28;20396;-73
2023/07/05 16:19:24;;;;;;;6.35;1.92;;;16.60;99.90;;;;;;5094949;28;20051;-73
2023/07/05 16:21:50;;;;;;;5.40;1.75;;;16.40;99.90;;;;;;5084670;28;20124;-73
2023/07/05 16:24:16;;;;;;;7.55;2.10;;;16.40;99.90;;;;;;5077037;28;20451;-73
2023/07/05 16:26:42;;;;;;;6.47;2.10;;;16.30;99.90;;;;;;5083107;28;20048;-73
2023/07/05 16:29:08;;;;;;;9.75;2.55;;;16.30;99.90;;;;;;5094972;28;20044;-73
2023/07/05 16:31:37;;;;;;;6.70;2.40;;;16.30;99.90;;;;;;5087037;28;20052;-73
2023/07/05 16:34:03;;;;;;;7.70;2.47;;;16.30;99.90;;;;;;5075911;28;20102;-73
2023/07/05 16:36:30;;;;;;;5.72;2.40;;;16.30;99.90;;;;;;5102939;28;20043;-73
2023/07/05 16:38:57;;;;;;;7.97;2.47;;;16.20;99.90;;;;;;5096336;28;20503;-73
2023/07/05 16:41:24;;;;;;;7.10;2.33;;;16.30;99.90;;;;;;5092529;28;20043;-73
2023/07/05 16:43:50;;;;;;;7.15;2.63;;;16.30;99.90;;;;;;5080152;28;20186;-73
2023/07/05 16:46:18;;;;;;;7.55;2.42;;;16.30;99.90;;;;;;5075807;28;20448;-73
2023/07/05 16:48:44;;;;;;;7.38;2.20;;;16.50;99.90;;;;;;5092161;28;20551;-73
2023/07/05 16:51:12;;;;;;;5.68;2.35;;;16.70;99.90;;;;;;5099296;28;20028;-73
2023/07/05 16:53:41;;;;;;;6.40;2.05;;;16.50;99.90;;;;;;5095564;28;20051;-74
2023/07/05 16:56:08;;;;;;;6.18;2.47;;;16.50;99.90;;;;;;5114314;28;20093;-73
2023/07/05 16:58:35;;;;;;;7.22;2.00;;;16.40;99.90;;;;;;5114085;28;20104;-73
2023/07/05 17:01:09;;;;;;;6.75;2.00;;;16.50;99.90;;;;;;5092512;28;20476;-73
2023/07/05 17:03:38;;;;;;;4.95;2.40;;;16.60;99.90;;;;;;5094904;28;20040;-73
2023/07/05 17:06:08;;;;;;;6.68;2.30;;;16.60;99.90;;;;;;5094299;28;20040;-73
2023/07/05 17:08:38;;;;;;;7.70;2.17;;;16.70;99.90;;;;;;5081635;28;20404;-74
2023/07/05 17:11:06;;;;;;;4.63;2.08;;;16.80;99.90;;;;;;5093963;28;20082;-73
2023/07/05 17:13:34;;;;;;;7.75;2.20;;;17.10;99.90;;;;;;5105932;28;20040;-74
2023/07/05 17:16:00;;;;;;;7.25;2.28;;;17.20;99.90;;;;;;5093457;28;20055;-74
2023/07/05 17:18:27;;;;;;;5.38;2.08;;;17.20;99.90;;;;;;5093743;28;20067;-73
2023/07/05 17:20:54;;;;;;;8.70;2.20;;;17.20;99.90;;;;;;5092515;28;20047;-74